sensor_id;sensor_type;location;lat;lon;timestamp;P1;durP1;ratioP1;P2;durP2;ratioP2
56285;SDS011;42191;47.562;9.686;2023-09-08T00:02:02;35.92;;;33.33;;
56285;SDS011;42191;47.562;9.686;2023-09-08T00:04:28;35.10;;;32.60;;
56285;SDS011;42191;47.562;9.686;2023-09-08T00:06:54;38.78;;;35.85;;
56285;SDS011;42191;47.562;9.686;2023-09-08T00:09:20;37.35;;;34.58;;
56285;SDS011;42191;47.562;9.686;2023-09-08T00:11:47;36.45;;;33.55;;
56285;SDS011;42191;47.562;9.686;2023-09-08T00:14:13;36.65;;;34.15;;
56285;SDS011;42191;47.562;9.686;2023-09-08T00:16:39;36.60;;;33.92;;
56285;SDS011;42191;47.562;9.686;2023-09-08T00:19:07;36.53;;;33.95;;
56285;SDS011;42191;47.562;9.686;2023-09-08T00:21:35;36.28;;;33.72;;
56285;SDS011;42191;47.562;9.686;2023-09-08T00:24:02;35.67;;;33.08;;
56285;SDS011;42191;47.562;9.686;2023-09-08T00:26:29;38.30;;;35.53;;
56285;SDS011;42191;47.562;9.686;2023-09-08T00:28:56;35.35;;;32.95;;
56285;SDS011;42191;47.562;9.686;2023-09-08T00:31:22;35.50;;;33.00;;
56285;SDS011;42191;47.562;9.686;2023-09-08T00:33:48;35.65;;;33.20;;
56285;SDS011;42191;47.562;9.686;2023-09-08T00:36:14;35.47;;;33.08;;
56285;SDS011;42191;47.562;9.686;2023-09-08T00:38:40;36.38;;;33.83;;
56285;SDS011;42191;47.562;9.686;2023-09-08T00:41:07;35.83;;;33.33;;
56285;SDS011;42191;47.562;9.686;2023-09-08T00:43:33;38.17;;;35.58;;
56285;SDS011;42191;47.562;9.686;2023-09-08T00:45:59;37.38;;;34.80;;
56285;SDS011;42191;47.562;9.686;2023-09-08T00:48:27;34.95;;;32.42;;
56285;SDS011;42191;47.562;9.686;2023-09-08T00:50:54;36.72;;;34.13;;
56285;SDS011;42191;47.562;9.686;2023-09-08T00:53:21;36.95;;;34.03;;
56285;SDS011;42191;47.562;9.686;2023-09-08T00:55:47;36.92;;;34.50;;
56285;SDS011;42191;47.562;9.686;2023-09-08T00:58:15;38.45;;;35.65;;
56285;SDS011;42191;47.562;9.686;2023-09-08T01:00:41;37.42;;;34.75;;
56285;SDS011;42191;47.562;9.686;2023-09-08T01:03:09;37.55;;;34.95;;
56285;SDS011;42191;47.562;9.686;2023-09-08T01:05:36;35.83;;;33.33;;
56285;SDS011;42191;47.562;9.686;2023-09-08T01:08:03;36.08;;;33.47;;
56285;SDS011;42191;47.562;9.686;2023-09-08T01:10:30;37.38;;;34.60;;
56285;SDS011;42191;47.562;9.686;2023-09-08T01:12:57;35.42;;;33.05;;
56285;SDS011;42191;47.562;9.686;2023-09-08T01:15:23;36.97;;;34.28;;
56285;SDS011;42191;47.562;9.686;2023-09-08T01:17:49;36.80;;;34.33;;
56285;SDS011;42191;47.562;9.686;2023-09-08T01:20:17;36.70;;;34.10;;
56285;SDS011;42191;47.562;9.686;2023-09-08T01:25:46;35.57;;;33.13;;
56285;SDS011;42191;47.562;9.686;2023-09-08T01:28:24;36.28;;;33.78;;
56285;SDS011;42191;47.562;9.686;2023-09-08T01:30:51;35.58;;;33.13;;
56285;SDS011;42191;47.562;9.686;2023-09-08T01:33:19;35.92;;;33.25;;
56285;SDS011;42191;47.562;9.686;2023-09-08T01:35:46;36.47;;;33.97;;
56285;SDS011;42191;47.562;9.686;2023-09-08T01:38:12;35.40;;;32.90;;
56285;SDS011;42191;47.562;9.686;2023-09-08T01:40:38;35.92;;;33.40;;
56285;SDS011;42191;47.562;9.686;2023-09-08T01:43:05;35.33;;;32.80;;
56285;SDS011;42191;47.562;9.686;2023-09-08T01:45:31;37.13;;;34.53;;
56285;SDS011;42191;47.562;9.686;2023-09-08T01:47:57;38.92;;;36.33;;
56285;SDS011;42191;47.562;9.686;2023-09-08T01:50:23;34.45;;;31.75;;
56285;SDS011;42191;47.562;9.686;2023-09-08T01:52:50;33.75;;;31.48;;
56285;SDS011;42191;47.562;9.686;2023-09-08T01:55:16;37.17;;;34.58;;
56285;SDS011;42191;47.562;9.686;2023-09-08T01:57:43;36.45;;;33.90;;
56285;SDS011;42191;47.562;9.686;2023-09-08T02:00:12;37.20;;;34.42;;
56285;SDS011;42191;47.562;9.686;2023-09-08T02:02:39;35.03;;;32.55;;
56285;SDS011;42191;47.562;9.686;2023-09-08T02:05:06;39.05;;;36.30;;
56285;SDS011;42191;47.562;9.686;2023-09-08T02:07:35;36.17;;;33.45;;
56285;SDS011;42191;47.562;9.686;2023-09-08T02:10:02;37.35;;;34.85;;
56285;SDS011;42191;47.562;9.686;2023-09-08T02:12:28;37.00;;;34.45;;
56285;SDS011;42191;47.562;9.686;2023-09-08T02:14:54;36.13;;;33.67;;
56285;SDS011;42191;47.562;9.686;2023-09-08T02:17:20;34.75;;;32.28;;
56285;SDS011;42191;47.562;9.686;2023-09-08T02:19:46;36.25;;;33.65;;
56285;SDS011;42191;47.562;9.686;2023-09-08T02:22:13;36.55;;;33.95;;
56285;SDS011;42191;47.562;9.686;2023-09-08T02:24:39;36.70;;;34.25;;
56285;SDS011;42191;47.562;9.686;2023-09-08T02:27:05;38.42;;;35.35;;
56285;SDS011;42191;47.562;9.686;2023-09-08T02:29:31;37.22;;;34.53;;
56285;SDS011;42191;47.562;9.686;2023-09-08T02:31:57;36.13;;;33.42;;
56285;SDS011;42191;47.562;9.686;2023-09-08T02:34:23;37.08;;;34.47;;
56285;SDS011;42191;47.562;9.686;2023-09-08T02:36:50;37.13;;;34.53;;
56285;SDS011;42191;47.562;9.686;2023-09-08T02:39:16;35.53;;;33.13;;
56285;SDS011;42191;47.562;9.686;2023-09-08T02:41:42;36.22;;;33.75;;
56285;SDS011;42191;47.562;9.686;2023-09-08T02:44:08;36.08;;;33.58;;
56285;SDS011;42191;47.562;9.686;2023-09-08T02:46:34;38.65;;;36.05;;
56285;SDS011;42191;47.562;9.686;2023-09-08T02:49:00;37.85;;;34.92;;
56285;SDS011;42191;47.562;9.686;2023-09-08T02:51:27;37.72;;;35.13;;
56285;SDS011;42191;47.562;9.686;2023-09-08T02:53:53;36.53;;;33.92;;
56285;SDS011;42191;47.562;9.686;2023-09-08T02:56:19;38.55;;;35.75;;
56285;SDS011;42191;47.562;9.686;2023-09-08T02:58:46;36.50;;;33.97;;
56285;SDS011;42191;47.562;9.686;2023-09-08T03:01:15;37.00;;;34.20;;
56285;SDS011;42191;47.562;9.686;2023-09-08T03:03:45;37.28;;;34.67;;
56285;SDS011;42191;47.562;9.686;2023-09-08T03:06:12;38.22;;;35.42;;
56285;SDS011;42191;47.562;9.686;2023-09-08T03:08:40;36.92;;;34.42;;
56285;SDS011;42191;47.562;9.686;2023-09-08T03:11:07;37.20;;;34.58;;
56285;SDS011;42191;47.562;9.686;2023-09-08T03:13:34;36.30;;;33.70;;
56285;SDS011;42191;47.562;9.686;2023-09-08T03:16:04;36.85;;;34.33;;
56285;SDS011;42191;47.562;9.686;2023-09-08T03:18:31;39.60;;;36.83;;
56285;SDS011;42191;47.562;9.686;2023-09-08T03:20:59;38.58;;;35.88;;
56285;SDS011;42191;47.562;9.686;2023-09-08T03:23:35;38.00;;;34.88;;
56285;SDS011;42191;47.562;9.686;2023-09-08T03:26:05;37.90;;;35.20;;
56285;SDS011;42191;47.562;9.686;2023-09-08T03:28:32;36.80;;;33.97;;
56285;SDS011;42191;47.562;9.686;2023-09-08T03:30:59;36.63;;;34.00;;
56285;SDS011;42191;47.562;9.686;2023-09-08T03:33:25;35.90;;;33.40;;
56285;SDS011;42191;47.562;9.686;2023-09-08T03:35:52;37.13;;;34.42;;
56285;SDS011;42191;47.562;9.686;2023-09-08T03:38:18;38.42;;;35.63;;
56285;SDS011;42191;47.562;9.686;2023-09-08T03:40:44;38.17;;;35.40;;
56285;SDS011;42191;47.562;9.686;2023-09-08T03:43:10;38.45;;;35.75;;
56285;SDS011;42191;47.562;9.686;2023-09-08T03:45:36;39.28;;;36.55;;
56285;SDS011;42191;47.562;9.686;2023-09-08T03:48:03;36.72;;;34.13;;
56285;SDS011;42191;47.562;9.686;2023-09-08T03:50:29;39.08;;;36.28;;
56285;SDS011;42191;47.562;9.686;2023-09-08T03:52:55;37.85;;;35.25;;
56285;SDS011;42191;47.562;9.686;2023-09-08T03:55:22;37.30;;;34.80;;
56285;SDS011;42191;47.562;9.686;2023-09-08T03:57:48;38.20;;;35.40;;
56285;SDS011;42191;47.562;9.686;2023-09-08T04:00:14;38.42;;;35.70;;
56285;SDS011;42191;47.562;9.686;2023-09-08T04:02:46;38.67;;;35.97;;
56285;SDS011;42191;47.562;9.686;2023-09-08T04:05:13;36.95;;;34.35;;
56285;SDS011;42191;47.562;9.686;2023-09-08T04:07:40;36.60;;;34.00;;
56285;SDS011;42191;47.562;9.686;2023-09-08T04:10:07;37.28;;;34.50;;
56285;SDS011;42191;47.562;9.686;2023-09-08T04:12:33;36.13;;;33.63;;
56285;SDS011;42191;47.562;9.686;2023-09-08T04:14:59;37.25;;;34.58;;
56285;SDS011;42191;47.562;9.686;2023-09-08T04:17:26;39.28;;;36.47;;
56285;SDS011;42191;47.562;9.686;2023-09-08T04:19:52;36.72;;;34.22;;
56285;SDS011;42191;47.562;9.686;2023-09-08T04:22:18;38.08;;;35.28;;
56285;SDS011;42191;47.562;9.686;2023-09-08T04:24:44;37.25;;;34.58;;
56285;SDS011;42191;47.562;9.686;2023-09-08T04:27:10;38.00;;;35.30;;
56285;SDS011;42191;47.562;9.686;2023-09-08T04:29:36;36.28;;;33.80;;
56285;SDS011;42191;47.562;9.686;2023-09-08T04:32:03;37.72;;;34.92;;
56285;SDS011;42191;47.562;9.686;2023-09-08T04:34:40;38.45;;;35.53;;
56285;SDS011;42191;47.562;9.686;2023-09-08T04:37:07;37.90;;;35.30;;
56285;SDS011;42191;47.562;9.686;2023-09-08T04:39:34;38.33;;;35.63;;
56285;SDS011;42191;47.562;9.686;2023-09-08T04:42:02;37.80;;;35.22;;
56285;SDS011;42191;47.562;9.686;2023-09-08T04:44:28;35.25;;;32.85;;
56285;SDS011;42191;47.562;9.686;2023-09-08T04:46:54;36.72;;;34.03;;
56285;SDS011;42191;47.562;9.686;2023-09-08T04:49:21;38.15;;;35.42;;
56285;SDS011;42191;47.562;9.686;2023-09-08T04:51:47;37.25;;;34.60;;
56285;SDS011;42191;47.562;9.686;2023-09-08T04:54:13;38.15;;;35.47;;
56285;SDS011;42191;47.562;9.686;2023-09-08T04:56:39;36.75;;;34.22;;
56285;SDS011;42191;47.562;9.686;2023-09-08T04:59:06;39.10;;;36.50;;
56285;SDS011;42191;47.562;9.686;2023-09-08T05:01:32;39.17;;;36.53;;
56285;SDS011;42191;47.562;9.686;2023-09-08T05:04:01;37.95;;;35.35;;
56285;SDS011;42191;47.562;9.686;2023-09-08T05:06:28;37.22;;;34.65;;
56285;SDS011;42191;47.562;9.686;2023-09-08T05:08:54;36.97;;;34.38;;
56285;SDS011;42191;47.562;9.686;2023-09-08T05:11:21;37.97;;;35.35;;
56285;SDS011;42191;47.562;9.686;2023-09-08T05:13:47;39.03;;;36.25;;
56285;SDS011;42191;47.562;9.686;2023-09-08T05:16:13;39.42;;;36.72;;
56285;SDS011;42191;47.562;9.686;2023-09-08T05:18:39;38.65;;;35.97;;
56285;SDS011;42191;47.562;9.686;2023-09-08T05:21:06;35.90;;;33.30;;
56285;SDS011;42191;47.562;9.686;2023-09-08T05:23:33;37.25;;;34.65;;
56285;SDS011;42191;47.562;9.686;2023-09-08T05:25:59;39.30;;;36.47;;
56285;SDS011;42191;47.562;9.686;2023-09-08T05:28:26;37.63;;;35.00;;
56285;SDS011;42191;47.562;9.686;2023-09-08T05:30:52;38.67;;;35.97;;
56285;SDS011;42191;47.562;9.686;2023-09-08T05:33:19;39.17;;;36.50;;
56285;SDS011;42191;47.562;9.686;2023-09-08T05:35:45;35.78;;;33.28;;
56285;SDS011;42191;47.562;9.686;2023-09-08T05:38:12;37.60;;;34.95;;
56285;SDS011;42191;47.562;9.686;2023-09-08T05:40:39;38.00;;;35.22;;
56285;SDS011;42191;47.562;9.686;2023-09-08T05:43:05;37.70;;;35.00;;
56285;SDS011;42191;47.562;9.686;2023-09-08T05:45:31;35.50;;;33.00;;
56285;SDS011;42191;47.562;9.686;2023-09-08T05:47:58;34.58;;;32.15;;
56285;SDS011;42191;47.562;9.686;2023-09-08T05:50:24;38.15;;;35.35;;
56285;SDS011;42191;47.562;9.686;2023-09-08T05:52:51;37.95;;;35.25;;
56285;SDS011;42191;47.562;9.686;2023-09-08T05:55:17;40.00;;;37.20;;
56285;SDS011;42191;47.562;9.686;2023-09-08T05:57:43;40.40;;;37.40;;
56285;SDS011;42191;47.562;9.686;2023-09-08T06:00:09;37.17;;;34.47;;
56285;SDS011;42191;47.562;9.686;2023-09-08T06:02:37;38.15;;;35.55;;
56285;SDS011;42191;47.562;9.686;2023-09-08T06:05:03;39.13;;;36.42;;
56285;SDS011;42191;47.562;9.686;2023-09-08T06:07:30;38.25;;;35.65;;
56285;SDS011;42191;47.562;9.686;2023-09-08T06:09:56;36.58;;;34.05;;
56285;SDS011;42191;47.562;9.686;2023-09-08T06:12:22;38.38;;;35.28;;
56285;SDS011;42191;47.562;9.686;2023-09-08T06:14:48;38.67;;;35.95;;
56285;SDS011;42191;47.562;9.686;2023-09-08T06:17:15;37.88;;;35.17;;
56285;SDS011;42191;47.562;9.686;2023-09-08T06:19:41;37.20;;;34.58;;
56285;SDS011;42191;47.562;9.686;2023-09-08T06:22:07;38.83;;;35.97;;
56285;SDS011;42191;47.562;9.686;2023-09-08T06:24:33;38.17;;;35.38;;
56285;SDS011;42191;47.562;9.686;2023-09-08T06:27:00;36.97;;;34.28;;
56285;SDS011;42191;47.562;9.686;2023-09-08T06:29:26;38.03;;;35.30;;
56285;SDS011;42191;47.562;9.686;2023-09-08T06:31:53;38.10;;;35.30;;
56285;SDS011;42191;47.562;9.686;2023-09-08T06:34:19;36.70;;;33.97;;
56285;SDS011;42191;47.562;9.686;2023-09-08T06:36:47;37.53;;;34.63;;
56285;SDS011;42191;47.562;9.686;2023-09-08T06:39:14;37.47;;;34.78;;
56285;SDS011;42191;47.562;9.686;2023-09-08T06:41:40;36.78;;;34.10;;
56285;SDS011;42191;47.562;9.686;2023-09-08T06:44:06;38.42;;;35.35;;
56285;SDS011;42191;47.562;9.686;2023-09-08T06:46:32;34.55;;;31.95;;
56285;SDS011;42191;47.562;9.686;2023-09-08T06:48:58;36.50;;;33.97;;
56285;SDS011;42191;47.562;9.686;2023-09-08T06:51:25;37.97;;;35.08;;
56285;SDS011;42191;47.562;9.686;2023-09-08T06:53:57;37.38;;;34.78;;
56285;SDS011;42191;47.562;9.686;2023-09-08T06:56:25;38.72;;;36.03;;
56285;SDS011;42191;47.562;9.686;2023-09-08T06:58:51;37.30;;;34.65;;
56285;SDS011;42191;47.562;9.686;2023-09-08T07:01:17;37.95;;;34.80;;
56285;SDS011;42191;47.562;9.686;2023-09-08T07:03:43;37.10;;;34.40;;
56285;SDS011;42191;47.562;9.686;2023-09-08T07:06:10;38.22;;;35.47;;
56285;SDS011;42191;47.562;9.686;2023-09-08T07:08:36;37.42;;;34.83;;
56285;SDS011;42191;47.562;9.686;2023-09-08T07:11:02;36.75;;;34.15;;
56285;SDS011;42191;47.562;9.686;2023-09-08T07:13:29;36.58;;;33.63;;
56285;SDS011;42191;47.562;9.686;2023-09-08T07:15:55;37.47;;;34.78;;
56285;SDS011;42191;47.562;9.686;2023-09-08T07:18:21;37.55;;;34.65;;
56285;SDS011;42191;47.562;9.686;2023-09-08T07:20:48;35.85;;;33.25;;
56285;SDS011;42191;47.562;9.686;2023-09-08T07:23:16;38.95;;;36.15;;
56285;SDS011;42191;47.562;9.686;2023-09-08T07:25:46;36.15;;;33.58;;
56285;SDS011;42191;47.562;9.686;2023-09-08T07:28:13;36.80;;;34.10;;
56285;SDS011;42191;47.562;9.686;2023-09-08T07:30:40;38.75;;;35.65;;
56285;SDS011;42191;47.562;9.686;2023-09-08T07:33:07;37.85;;;35.10;;
56285;SDS011;42191;47.562;9.686;2023-09-08T07:35:36;38.22;;;35.53;;
56285;SDS011;42191;47.562;9.686;2023-09-08T07:38:03;37.65;;;34.90;;
56285;SDS011;42191;47.562;9.686;2023-09-08T07:40:29;38.88;;;36.08;;
56285;SDS011;42191;47.562;9.686;2023-09-08T07:42:56;35.92;;;33.42;;
56285;SDS011;42191;47.562;9.686;2023-09-08T07:45:23;37.13;;;34.42;;
56285;SDS011;42191;47.562;9.686;2023-09-08T07:47:49;39.63;;;36.63;;
56285;SDS011;42191;47.562;9.686;2023-09-08T07:50:16;40.40;;;37.25;;
56285;SDS011;42191;47.562;9.686;2023-09-08T07:52:50;37.22;;;34.60;;
56285;SDS011;42191;47.562;9.686;2023-09-08T07:55:18;36.78;;;34.17;;
56285;SDS011;42191;47.562;9.686;2023-09-08T07:57:45;38.25;;;35.45;;
56285;SDS011;42191;47.562;9.686;2023-09-08T08:00:11;38.35;;;35.55;;
56285;SDS011;42191;47.562;9.686;2023-09-08T08:02:42;38.22;;;35.50;;
56285;SDS011;42191;47.562;9.686;2023-09-08T08:05:10;37.50;;;34.90;;
56285;SDS011;42191;47.562;9.686;2023-09-08T08:07:37;37.13;;;34.35;;
56285;SDS011;42191;47.562;9.686;2023-09-08T08:10:05;36.25;;;33.70;;
56285;SDS011;42191;47.562;9.686;2023-09-08T08:12:32;37.03;;;34.33;;
56285;SDS011;42191;47.562;9.686;2023-09-08T08:14:58;37.85;;;35.05;;
56285;SDS011;42191;47.562;9.686;2023-09-08T08:17:24;37.40;;;34.70;;
56285;SDS011;42191;47.562;9.686;2023-09-08T08:19:53;36.28;;;33.58;;
56285;SDS011;42191;47.562;9.686;2023-09-08T08:22:19;37.60;;;34.65;;
56285;SDS011;42191;47.562;9.686;2023-09-08T08:24:46;37.28;;;34.10;;
56285;SDS011;42191;47.562;9.686;2023-09-08T08:27:12;37.38;;;34.47;;
56285;SDS011;42191;47.562;9.686;2023-09-08T08:29:38;37.65;;;34.95;;
56285;SDS011;42191;47.562;9.686;2023-09-08T08:32:05;38.85;;;35.95;;
56285;SDS011;42191;47.562;9.686;2023-09-08T08:34:31;35.95;;;33.17;;
56285;SDS011;42191;47.562;9.686;2023-09-08T08:36:57;37.90;;;35.10;;
56285;SDS011;42191;47.562;9.686;2023-09-08T08:39:24;36.88;;;34.28;;
56285;SDS011;42191;47.562;9.686;2023-09-08T08:41:50;36.53;;;33.70;;
56285;SDS011;42191;47.562;9.686;2023-09-08T08:44:17;37.25;;;34.33;;
56285;SDS011;42191;47.562;9.686;2023-09-08T08:46:43;37.63;;;34.95;;
56285;SDS011;42191;47.562;9.686;2023-09-08T08:49:11;38.17;;;35.08;;
56285;SDS011;42191;47.562;9.686;2023-09-08T08:51:40;38.17;;;35.40;;
56285;SDS011;42191;47.562;9.686;2023-09-08T08:54:11;38.17;;;35.28;;
56285;SDS011;42191;47.562;9.686;2023-09-08T08:56:38;37.83;;;34.78;;
56285;SDS011;42191;47.562;9.686;2023-09-08T08:59:05;38.75;;;35.72;;
56285;SDS011;42191;47.562;9.686;2023-09-08T09:01:32;36.20;;;33.50;;
56285;SDS011;42191;47.562;9.686;2023-09-08T09:04:00;38.78;;;35.78;;
56285;SDS011;42191;47.562;9.686;2023-09-08T09:06:29;39.25;;;36.45;;
56285;SDS011;42191;47.562;9.686;2023-09-08T09:08:56;36.75;;;34.15;;
56285;SDS011;42191;47.562;9.686;2023-09-08T09:11:23;33.60;;;31.23;;
56285;SDS011;42191;47.562;9.686;2023-09-08T09:13:49;38.03;;;34.80;;
56285;SDS011;42191;47.562;9.686;2023-09-08T09:16:15;37.65;;;34.75;;
56285;SDS011;42191;47.562;9.686;2023-09-08T09:21:24;38.15;;;35.47;;
56285;SDS011;42191;47.562;9.686;2023-09-08T09:24:07;37.20;;;34.50;;
56285;SDS011;42191;47.562;9.686;2023-09-08T09:26:38;36.90;;;34.17;;
56285;SDS011;42191;47.562;9.686;2023-09-08T09:29:11;36.88;;;34.13;;
56285;SDS011;42191;47.562;9.686;2023-09-08T09:31:43;38.05;;;35.28;;
56285;SDS011;42191;47.562;9.686;2023-09-08T09:34:17;36.67;;;33.90;;
56285;SDS011;42191;47.562;9.686;2023-09-08T09:36:45;37.70;;;34.92;;
56285;SDS011;42191;47.562;9.686;2023-09-08T09:39:15;38.78;;;35.97;;
56285;SDS011;42191;47.562;9.686;2023-09-08T09:41:43;39.22;;;36.17;;
56285;SDS011;42191;47.562;9.686;2023-09-08T09:44:11;37.83;;;34.83;;
56285;SDS011;42191;47.562;9.686;2023-09-08T09:46:37;38.38;;;35.67;;
56285;SDS011;42191;47.562;9.686;2023-09-08T09:49:09;36.85;;;34.13;;
56285;SDS011;42191;47.562;9.686;2023-09-08T09:51:43;38.67;;;35.85;;
56285;SDS011;42191;47.562;9.686;2023-09-08T09:54:12;37.63;;;34.92;;
56285;SDS011;42191;47.562;9.686;2023-09-08T09:56:39;36.83;;;34.13;;
56285;SDS011;42191;47.562;9.686;2023-09-08T09:59:10;38.42;;;35.47;;
56285;SDS011;42191;47.562;9.686;2023-09-08T10:01:38;36.22;;;33.50;;
56285;SDS011;42191;47.562;9.686;2023-09-08T10:04:05;39.95;;;36.97;;
56285;SDS011;42191;47.562;9.686;2023-09-08T10:06:32;38.55;;;35.38;;
56285;SDS011;42191;47.562;9.686;2023-09-08T10:09:03;37.78;;;34.88;;
56285;SDS011;42191;47.562;9.686;2023-09-08T10:11:45;41.10;;;37.72;;
56285;SDS011;42191;47.562;9.686;2023-09-08T10:14:14;38.10;;;35.17;;
56285;SDS011;42191;47.562;9.686;2023-09-08T10:16:43;38.35;;;35.30;;
56285;SDS011;42191;47.562;9.686;2023-09-08T10:19:14;37.47;;;34.47;;
56285;SDS011;42191;47.562;9.686;2023-09-08T10:21:42;40.72;;;37.63;;
56285;SDS011;42191;47.562;9.686;2023-09-08T10:24:21;38.58;;;35.47;;
56285;SDS011;42191;47.562;9.686;2023-09-08T10:27:09;37.60;;;34.53;;
56285;SDS011;42191;47.562;9.686;2023-09-08T10:29:36;37.13;;;34.22;;
56285;SDS011;42191;47.562;9.686;2023-09-08T10:32:04;37.42;;;34.55;;
56285;SDS011;42191;47.562;9.686;2023-09-08T10:34:32;38.55;;;35.75;;
56285;SDS011;42191;47.562;9.686;2023-09-08T10:37:00;38.25;;;35.40;;
56285;SDS011;42191;47.562;9.686;2023-09-08T10:39:28;39.53;;;36.42;;
56285;SDS011;42191;47.562;9.686;2023-09-08T10:47:17;38.17;;;35.10;;
56285;SDS011;42191;47.562;9.686;2023-09-08T10:49:44;37.75;;;34.25;;
56285;SDS011;42191;47.562;9.686;2023-09-08T10:52:11;38.92;;;35.85;;
56285;SDS011;42191;47.562;9.686;2023-09-08T10:54:45;39.30;;;36.33;;
56285;SDS011;42191;47.562;9.686;2023-09-08T10:57:16;36.88;;;33.88;;
56285;SDS011;42191;47.562;9.686;2023-09-08T10:59:52;36.55;;;33.83;;
56285;SDS011;42191;47.562;9.686;2023-09-08T11:02:34;40.40;;;37.30;;
56285;SDS011;42191;47.562;9.686;2023-09-08T11:05:13;39.92;;;37.00;;
56285;SDS011;42191;47.562;9.686;2023-09-08T11:07:44;39.05;;;36.15;;
56285;SDS011;42191;47.562;9.686;2023-09-08T11:10:11;37.33;;;34.40;;
56285;SDS011;42191;47.562;9.686;2023-09-08T11:12:38;37.85;;;34.97;;
56285;SDS011;42191;47.562;9.686;2023-09-08T11:15:05;38.55;;;35.70;;
56285;SDS011;42191;47.562;9.686;2023-09-08T11:17:34;38.63;;;35.75;;
56285;SDS011;42191;47.562;9.686;2023-09-08T11:20:04;37.72;;;35.03;;
56285;SDS011;42191;47.562;9.686;2023-09-08T11:22:38;39.22;;;36.13;;
56285;SDS011;42191;47.562;9.686;2023-09-08T11:25:09;38.58;;;35.60;;
56285;SDS011;42191;47.562;9.686;2023-09-08T11:27:36;37.60;;;34.67;;
56285;SDS011;42191;47.562;9.686;2023-09-08T11:30:07;39.00;;;36.10;;
56285;SDS011;42191;47.562;9.686;2023-09-08T11:32:34;37.97;;;35.08;;
56285;SDS011;42191;47.562;9.686;2023-09-08T11:35:10;39.40;;;36.35;;
56285;SDS011;42191;47.562;9.686;2023-09-08T11:37:39;38.42;;;35.53;;
56285;SDS011;42191;47.562;9.686;2023-09-08T11:40:09;38.20;;;35.33;;
56285;SDS011;42191;47.562;9.686;2023-09-08T11:42:43;38.22;;;35.47;;
56285;SDS011;42191;47.562;9.686;2023-09-08T11:45:10;37.53;;;34.80;;
56285;SDS011;42191;47.562;9.686;2023-09-08T11:47:39;38.13;;;35.35;;
56285;SDS011;42191;47.562;9.686;2023-09-08T11:50:06;38.15;;;35.25;;
56285;SDS011;42191;47.562;9.686;2023-09-08T11:52:43;39.70;;;36.78;;
56285;SDS011;42191;47.562;9.686;2023-09-08T11:55:11;38.67;;;35.58;;
56285;SDS011;42191;47.562;9.686;2023-09-08T11:57:38;36.83;;;33.97;;
56285;SDS011;42191;47.562;9.686;2023-09-08T12:00:05;35.97;;;33.28;;
56285;SDS011;42191;47.562;9.686;2023-09-08T12:02:37;36.58;;;33.58;;
56285;SDS011;42191;47.562;9.686;2023-09-08T12:05:04;37.33;;;34.70;;
56285;SDS011;42191;47.562;9.686;2023-09-08T12:07:30;38.67;;;35.40;;
56285;SDS011;42191;47.562;9.686;2023-09-08T12:09:57;37.63;;;34.63;;
56285;SDS011;42191;47.562;9.686;2023-09-08T12:12:24;37.78;;;34.97;;
56285;SDS011;42191;47.562;9.686;2023-09-08T12:14:51;38.28;;;35.40;;
56285;SDS011;42191;47.562;9.686;2023-09-08T12:17:18;36.40;;;33.70;;
56285;SDS011;42191;47.562;9.686;2023-09-08T12:19:49;37.53;;;34.67;;
56285;SDS011;42191;47.562;9.686;2023-09-08T12:22:15;38.13;;;34.97;;
56285;SDS011;42191;47.562;9.686;2023-09-08T12:24:47;37.25;;;34.45;;
56285;SDS011;42191;47.562;9.686;2023-09-08T12:27:21;36.92;;;34.13;;
56285;SDS011;42191;47.562;9.686;2023-09-08T12:29:53;37.47;;;34.53;;
56285;SDS011;42191;47.562;9.686;2023-09-08T12:32:28;37.50;;;34.70;;
56285;SDS011;42191;47.562;9.686;2023-09-08T12:34:55;37.78;;;34.95;;
56285;SDS011;42191;47.562;9.686;2023-09-08T12:37:23;37.38;;;34.67;;
56285;SDS011;42191;47.562;9.686;2023-09-08T12:39:52;37.72;;;35.08;;
56285;SDS011;42191;47.562;9.686;2023-09-08T12:42:19;33.88;;;31.33;;
56285;SDS011;42191;47.562;9.686;2023-09-08T12:44:45;34.88;;;32.28;;
56285;SDS011;42191;47.562;9.686;2023-09-08T12:47:12;34.72;;;32.35;;
56285;SDS011;42191;47.562;9.686;2023-09-08T12:49:39;35.30;;;32.80;;
56285;SDS011;42191;47.562;9.686;2023-09-08T12:52:05;35.60;;;33.08;;
56285;SDS011;42191;47.562;9.686;2023-09-08T12:54:32;35.50;;;32.88;;
56285;SDS011;42191;47.562;9.686;2023-09-08T12:56:58;35.65;;;32.95;;
56285;SDS011;42191;47.562;9.686;2023-09-08T12:59:24;34.05;;;31.75;;
56285;SDS011;42191;47.562;9.686;2023-09-08T13:01:50;36.42;;;33.70;;
56285;SDS011;42191;47.562;9.686;2023-09-08T13:04:17;35.33;;;32.83;;
56285;SDS011;42191;47.562;9.686;2023-09-08T13:06:44;33.20;;;30.80;;
56285;SDS011;42191;47.562;9.686;2023-09-08T13:09:10;34.38;;;32.08;;
56285;SDS011;42191;47.562;9.686;2023-09-08T13:11:36;33.30;;;30.88;;
56285;SDS011;42191;47.562;9.686;2023-09-08T13:14:03;34.65;;;32.15;;
56285;SDS011;42191;47.562;9.686;2023-09-08T13:16:29;33.08;;;30.80;;
56285;SDS011;42191;47.562;9.686;2023-09-08T13:18:55;33.55;;;31.10;;
56285;SDS011;42191;47.562;9.686;2023-09-08T13:21:21;33.30;;;30.65;;
56285;SDS011;42191;47.562;9.686;2023-09-08T13:23:47;35.10;;;32.33;;
56285;SDS011;42191;47.562;9.686;2023-09-08T13:26:14;32.85;;;30.63;;
56285;SDS011;42191;47.562;9.686;2023-09-08T13:28:40;31.83;;;29.52;;
56285;SDS011;42191;47.562;9.686;2023-09-08T13:31:06;31.77;;;29.38;;
56285;SDS011;42191;47.562;9.686;2023-09-08T13:33:32;31.58;;;29.20;;
56285;SDS011;42191;47.562;9.686;2023-09-08T13:35:58;29.70;;;27.70;;
56285;SDS011;42191;47.562;9.686;2023-09-08T13:38:25;30.27;;;28.17;;
56285;SDS011;42191;47.562;9.686;2023-09-08T13:40:51;29.58;;;27.52;;
56285;SDS011;42191;47.562;9.686;2023-09-08T13:43:18;28.00;;;26.10;;
56285;SDS011;42191;47.562;9.686;2023-09-08T13:45:44;26.98;;;25.17;;
56285;SDS011;42191;47.562;9.686;2023-09-08T13:48:10;26.67;;;24.88;;
56285;SDS011;42191;47.562;9.686;2023-09-08T13:50:39;27.20;;;25.40;;
56285;SDS011;42191;47.562;9.686;2023-09-08T13:53:05;27.10;;;25.10;;
56285;SDS011;42191;47.562;9.686;2023-09-08T13:55:31;27.95;;;25.85;;
56285;SDS011;42191;47.562;9.686;2023-09-08T13:57:58;27.33;;;25.48;;
56285;SDS011;42191;47.562;9.686;2023-09-08T14:00:24;27.35;;;25.45;;
56285;SDS011;42191;47.562;9.686;2023-09-08T14:02:50;26.45;;;24.55;;
56285;SDS011;42191;47.562;9.686;2023-09-08T14:05:16;26.60;;;24.70;;
56285;SDS011;42191;47.562;9.686;2023-09-08T14:07:42;25.75;;;23.95;;
56285;SDS011;42191;47.562;9.686;2023-09-08T14:10:09;25.23;;;23.63;;
56285;SDS011;42191;47.562;9.686;2023-09-08T14:12:35;25.98;;;24.17;;
56285;SDS011;42191;47.562;9.686;2023-09-08T14:15:02;25.85;;;24.05;;
56285;SDS011;42191;47.562;9.686;2023-09-08T14:17:28;27.02;;;25.02;;
56285;SDS011;42191;47.562;9.686;2023-09-08T14:19:55;26.65;;;24.75;;
56285;SDS011;42191;47.562;9.686;2023-09-08T14:22:21;26.55;;;24.70;;
56285;SDS011;42191;47.562;9.686;2023-09-08T14:24:47;27.35;;;25.30;;
56285;SDS011;42191;47.562;9.686;2023-09-08T14:27:13;26.67;;;24.83;;
56285;SDS011;42191;47.562;9.686;2023-09-08T14:29:39;26.40;;;24.60;;
56285;SDS011;42191;47.562;9.686;2023-09-08T14:32:05;26.60;;;24.63;;
56285;SDS011;42191;47.562;9.686;2023-09-08T14:34:32;26.80;;;24.65;;